createdAt,value
2018-06-09T00:02:09.625Z,26.30
2018-06-09T00:04:38.005Z,26.90
2018-06-09T00:07:06.338Z,26.10
2018-06-09T00:09:34.693Z,28.07
2018-06-09T00:12:02.992Z,27.17
2018-06-09T00:14:31.271Z,27.80
2018-06-09T00:16:59.561Z,27.80
2018-06-09T00:19:27.879Z,27.27
2018-06-09T00:21:56.191Z,27.70
2018-06-09T00:24:25.061Z,26.67
2018-06-09T00:26:53.366Z,26.30
2018-06-09T00:29:21.747Z,27.57
2018-06-09T00:31:50.089Z,28.40
2018-06-09T00:34:18.165Z,27.07
2018-06-09T00:36:46.465Z,26.83
2018-06-09T00:39:14.867Z,25.90
2018-06-09T00:41:43.167Z,26.37
2018-06-09T00:44:11.457Z,26.37
2018-06-09T00:46:39.855Z,26.43
2018-06-09T00:49:08.237Z,27.57
2018-06-09T00:51:36.546Z,26.87
2018-06-09T00:54:04.855Z,26.57
2018-06-09T00:56:43.637Z,26.87
2018-06-09T00:59:12.113Z,26.90
2018-06-09T01:01:40.648Z,27.20
2018-06-09T01:04:08.966Z,26.17
2018-06-09T01:06:37.271Z,25.93
2018-06-09T01:09:07.467Z,26.60
2018-06-09T01:11:35.992Z,28.43
2018-06-09T01:14:04.312Z,28.57
2018-06-09T01:16:32.625Z,27.53
2018-06-09T01:19:00.990Z,27.70
2018-06-09T01:21:29.274Z,27.87
2018-06-09T01:23:57.561Z,27.33
2018-06-09T01:26:25.874Z,26.83
2018-06-09T01:28:54.159Z,26.87
2018-06-09T01:31:22.458Z,27.03
2018-06-09T01:33:50.776Z,26.70
2018-06-09T01:36:19.083Z,26.50
2018-06-09T01:38:47.377Z,27.93
2018-06-09T01:41:15.402Z,29.30
2018-06-09T01:43:43.728Z,29.03
2018-06-09T01:46:12.192Z,28.87
2018-06-09T01:48:40.494Z,29.13
2018-06-09T01:51:08.787Z,27.97
2018-06-09T01:53:37.057Z,28.00
2018-06-09T01:56:05.362Z,27.57
2018-06-09T01:58:33.677Z,27.23
2018-06-09T02:01:01.745Z,28.40
2018-06-09T02:03:30.023Z,27.43
2018-06-09T02:05:58.321Z,27.30
2018-06-09T02:08:26.394Z,28.40
2018-06-09T02:10:54.446Z,28.07
2018-06-09T02:13:22.758Z,28.03
2018-06-09T02:15:50.764Z,27.43
2018-06-09T02:18:19.042Z,27.10
2018-06-09T02:20:47.358Z,26.87
2018-06-09T02:23:15.683Z,29.03
2018-06-09T02:25:43.756Z,27.23
2018-06-09T02:28:11.848Z,27.70
2018-06-09T02:30:40.138Z,28.10
2018-06-09T02:33:08.448Z,27.47
2018-06-09T02:35:36.760Z,27.93
2018-06-09T02:38:05.058Z,27.73
2018-06-09T02:40:33.374Z,28.03
2018-06-09T02:43:01.784Z,28.90
2018-06-09T02:45:30.078Z,29.30
2018-06-09T02:47:58.384Z,29.53
2018-06-09T02:50:26.706Z,27.50
2018-06-09T02:52:54.988Z,26.73
2018-06-09T02:55:23.283Z,28.23
2018-06-09T02:57:51.548Z,26.47
2018-06-09T03:00:19.884Z,27.00
2018-06-09T03:02:48.237Z,29.30
2018-06-09T03:05:16.541Z,27.17
2018-06-09T03:07:44.996Z,26.93
2018-06-09T03:10:13.373Z,27.40
2018-06-09T03:12:41.778Z,26.87
2018-06-09T03:15:10.169Z,26.80
2018-06-09T03:17:38.304Z,28.43
2018-06-09T03:20:06.595Z,27.77
2018-06-09T03:22:34.897Z,27.50
2018-06-09T03:25:03.239Z,28.47
2018-06-09T03:27:31.685Z,28.03
2018-06-09T03:29:59.978Z,31.47
2018-06-09T03:32:28.285Z,30.03
2018-06-09T03:34:56.577Z,30.27
2018-06-09T03:37:24.897Z,30.60
2018-06-09T03:39:53.175Z,30.97
2018-06-09T03:42:21.475Z,38.83
2018-06-09T03:44:49.781Z,55.47
2018-06-09T03:47:18.052Z,58.07
2018-06-09T03:49:46.363Z,41.43
2018-06-09T03:52:14.659Z,45.37
2018-06-09T03:54:42.669Z,51.80
2018-06-09T03:57:11.101Z,41.97
2018-06-09T03:59:39.373Z,39.60
2018-06-09T04:02:07.682Z,42.97
2018-06-09T04:04:35.713Z,44.77
2018-06-09T04:07:03.986Z,38.97
2018-06-09T04:09:32.295Z,40.40
2018-06-09T04:12:00.567Z,39.60
2018-06-09T04:14:28.865Z,42.20
2018-06-09T04:16:57.211Z,40.27
2018-06-09T04:19:25.492Z,38.20
2018-06-09T04:21:53.793Z,39.33
2018-06-09T04:24:22.191Z,38.50
2018-06-09T04:26:50.524Z,39.70
2018-06-09T04:29:18.905Z,39.10
2018-06-09T04:31:47.220Z,39.03
2018-06-09T04:34:15.681Z,40.10
2018-06-09T04:36:43.962Z,41.77
2018-06-09T04:39:12.260Z,39.33
2018-06-09T04:41:40.591Z,39.43
2018-06-09T04:44:08.986Z,41.07
2018-06-09T04:46:37.326Z,40.07
2018-06-09T04:49:05.388Z,40.13
2018-06-09T04:51:33.694Z,39.27
2018-06-09T04:54:01.980Z,41.03
2018-06-09T04:56:30.263Z,40.13
2018-06-09T04:58:58.370Z,38.30
2018-06-09T05:01:26.673Z,41.67
2018-06-09T05:03:54.690Z,41.50
2018-06-09T05:06:23.002Z,45.07
2018-06-09T05:08:51.281Z,41.47
2018-06-09T05:11:19.580Z,42.10
2018-06-09T05:13:47.920Z,46.37
2018-06-09T05:16:16.237Z,45.50
2018-06-09T05:18:44.536Z,42.33
2018-06-09T05:21:12.960Z,42.23
2018-06-09T05:23:41.244Z,45.23
2018-06-09T05:26:09.612Z,46.40
2018-06-09T05:28:37.924Z,46.50
2018-06-09T05:31:06.222Z,45.47
2018-06-09T05:33:34.584Z,50.20
2018-06-09T05:36:02.873Z,44.87
2018-06-09T05:38:31.191Z,46.87
2018-06-09T05:40:59.524Z,42.00
2018-06-09T05:43:27.899Z,45.57
2018-06-09T05:45:56.195Z,42.90
2018-06-09T05:48:24.508Z,39.00
2018-06-09T05:50:52.820Z,42.50
2018-06-09T05:53:21.139Z,39.17
2018-06-09T05:55:49.533Z,40.20
2018-06-09T05:58:17.839Z,40.40
2018-06-09T06:00:46.153Z,41.87
2018-06-09T06:03:14.257Z,41.90
2018-06-09T06:05:42.584Z,40.13
2018-06-09T06:08:10.913Z,38.40
2018-06-09T06:10:39.247Z,40.07
2018-06-09T06:13:07.532Z,39.10
2018-06-09T06:15:35.899Z,38.73
2018-06-09T06:18:04.209Z,37.13
2018-06-09T06:20:32.501Z,38.43
2018-06-09T06:23:00.825Z,38.90
2018-06-09T06:25:29.162Z,38.70
2018-06-09T06:27:57.481Z,37.47
2018-06-09T06:30:25.829Z,37.77
2018-06-09T06:32:54.190Z,37.07
2018-06-09T06:35:22.505Z,37.77
2018-06-09T06:37:50.788Z,37.77
2018-06-09T06:40:19.098Z,37.07
2018-06-09T06:42:47.413Z,35.70
2018-06-09T06:45:15.736Z,34.37
2018-06-09T06:47:44.046Z,36.47
2018-06-09T06:50:12.373Z,34.77
2018-06-09T06:52:40.724Z,36.23
2018-06-09T06:55:09.300Z,36.20
2018-06-09T06:57:37.643Z,35.53
2018-06-09T07:00:05.933Z,34.83
2018-06-09T07:02:34.261Z,34.00
2018-06-09T07:05:02.569Z,33.63
2018-06-09T07:07:30.883Z,34.40
2018-06-09T07:09:59.168Z,37.13
2018-06-09T07:12:27.495Z,36.53
2018-06-09T07:14:55.807Z,36.60
2018-06-09T07:17:24.087Z,36.17
2018-06-09T07:19:52.431Z,36.90
2018-06-09T07:22:20.737Z,38.03
2018-06-09T07:24:49.028Z,36.67
2018-06-09T07:27:17.357Z,37.97
2018-06-09T07:29:45.673Z,37.43
2018-06-09T07:32:13.995Z,34.40
2018-06-09T07:34:42.363Z,35.30
2018-06-09T07:37:10.689Z,33.87
2018-06-09T07:39:39.091Z,36.07
2018-06-09T07:42:07.397Z,35.53
2018-06-09T07:44:35.745Z,34.57
2018-06-09T07:47:04.163Z,33.83
2018-06-09T07:49:32.463Z,35.30
2018-06-09T07:52:00.487Z,34.93
2018-06-09T07:54:28.814Z,34.17
2018-06-09T07:56:57.145Z,33.90
2018-06-09T07:59:25.473Z,31.27
2018-06-09T08:01:53.858Z,35.03
2018-06-09T08:04:22.187Z,35.27
2018-06-09T08:06:50.566Z,33.13
2018-06-09T08:09:18.833Z,34.93
2018-06-09T08:11:47.146Z,38.17
2018-06-09T08:14:15.497Z,35.83
2018-06-09T08:16:43.817Z,33.33
2018-06-09T08:19:12.143Z,36.13
2018-06-09T08:21:40.486Z,35.23
2018-06-09T08:24:08.801Z,34.63
2018-06-09T08:26:37.207Z,33.47
2018-06-09T08:29:05.661Z,34.47
2018-06-09T08:31:33.992Z,35.57
2018-06-09T08:34:02.397Z,33.97
2018-06-09T08:36:30.828Z,33.97
2018-06-09T08:38:59.107Z,32.10
2018-06-09T08:41:27.459Z,32.73
2018-06-09T08:43:55.757Z,32.10
2018-06-09T08:46:24.087Z,34.83
2018-06-09T08:48:52.393Z,32.87
2018-06-09T08:51:20.717Z,31.83
2018-06-09T08:53:49.037Z,32.20
2018-06-09T08:56:17.392Z,31.83
2018-06-09T08:58:45.789Z,30.00
2018-06-09T09:01:14.080Z,28.40
2018-06-09T09:03:42.082Z,29.10
2018-06-09T09:06:10.410Z,29.43
2018-06-09T09:08:38.793Z,29.90
2018-06-09T09:11:07.201Z,30.53
2018-06-09T09:13:35.489Z,28.33
2018-06-09T09:16:03.963Z,27.87
2018-06-09T09:18:32.256Z,26.97
2018-06-09T09:21:00.545Z,28.70
2018-06-09T09:23:28.861Z,26.27
2018-06-09T09:25:57.203Z,27.07
2018-06-09T09:28:25.497Z,25.43
2018-06-09T09:30:53.793Z,25.40
2018-06-09T09:33:22.093Z,26.10
2018-06-09T09:35:50.394Z,26.50
2018-06-09T09:38:18.481Z,25.87
2018-06-09T09:40:46.815Z,26.50
2018-06-09T09:43:15.143Z,25.67
2018-06-09T09:45:43.450Z,25.60
2018-06-09T09:48:11.773Z,25.60
2018-06-09T09:50:40.086Z,24.80
2018-06-09T09:53:08.378Z,24.10
2018-06-09T09:55:36.678Z,24.27
2018-06-09T09:58:04.995Z,25.87
2018-06-09T10:00:37.893Z,25.93
2018-06-09T10:03:06.465Z,25.57
2018-06-09T10:05:34.823Z,28.03
2018-06-09T10:08:03.212Z,25.73
2018-06-09T10:10:31.734Z,25.50
2018-06-09T10:13:00.030Z,25.13
2018-06-09T10:15:28.344Z,24.70
2018-06-09T10:17:56.678Z,24.37
2018-06-09T10:20:25.044Z,23.10
2018-06-09T10:22:53.538Z,23.33
2018-06-09T10:25:21.825Z,24.17
2018-06-09T10:27:49.949Z,24.60
2018-06-09T10:30:18.041Z,22.30
2018-06-09T10:32:46.374Z,22.63
2018-06-09T10:35:14.759Z,22.47
2018-06-09T10:37:43.103Z,22.07
2018-06-09T10:40:11.391Z,22.07
2018-06-09T10:42:39.723Z,22.17
2018-06-09T10:45:08.157Z,22.07
2018-06-09T10:47:36.433Z,22.13
2018-06-09T10:50:04.751Z,21.13
2018-06-09T10:52:33.102Z,22.43
2018-06-09T10:55:01.447Z,22.30
2018-06-09T10:57:29.887Z,21.27
2018-06-09T10:59:58.182Z,21.87
2018-06-09T11:02:26.506Z,21.10
2018-06-09T11:04:54.808Z,21.37
2018-06-09T11:07:23.130Z,20.57
2018-06-09T11:09:51.445Z,19.83
2018-06-09T11:12:19.746Z,21.43
2018-06-09T11:14:47.774Z,20.87
2018-06-09T11:17:16.075Z,20.80
2018-06-09T11:19:44.657Z,20.53
2018-06-09T11:22:12.963Z,19.47
2018-06-09T11:24:41.268Z,20.67
2018-06-09T11:27:09.548Z,20.13
2018-06-09T11:29:37.826Z,19.23
2018-06-09T11:32:06.346Z,19.33
2018-06-09T11:34:34.649Z,20.30
2018-06-09T11:37:02.946Z,18.53
2018-06-09T11:39:31.254Z,20.07
2018-06-09T11:41:59.340Z,19.60
2018-06-09T11:44:27.660Z,18.60
2018-06-09T11:46:55.948Z,18.47
2018-06-09T11:49:24.271Z,18.63
2018-06-09T11:51:52.578Z,23.47
2018-06-09T11:54:20.896Z,19.20
2018-06-09T11:56:48.944Z,19.27
2018-06-09T11:59:17.258Z,19.50
2018-06-09T12:01:45.601Z,18.70
2018-06-09T12:04:13.676Z,19.13
2018-06-09T12:06:41.976Z,19.30
2018-06-09T12:09:10.388Z,19.13
2018-06-09T12:11:38.507Z,20.00
2018-06-09T12:14:06.888Z,18.77
2018-06-09T12:16:35.169Z,18.07
2018-06-09T12:19:03.468Z,17.97
2018-06-09T12:21:31.802Z,17.93
2018-06-09T12:24:00.182Z,18.47
2018-06-09T12:26:28.469Z,18.63
2018-06-09T12:28:56.774Z,17.90
2018-06-09T12:31:25.096Z,17.90
2018-06-09T12:33:53.422Z,17.40
2018-06-09T12:36:21.736Z,17.23
2018-06-09T12:38:50.050Z,18.43
2018-06-09T12:41:18.365Z,18.07
2018-06-09T12:43:46.679Z,17.60
2018-06-09T12:46:15.007Z,17.27
2018-06-09T12:48:43.299Z,18.07
2018-06-09T12:51:11.710Z,18.33
2018-06-09T12:53:40.013Z,17.23
2018-06-09T12:56:08.443Z,17.30
2018-06-09T12:58:36.772Z,16.03
2018-06-09T13:01:05.124Z,16.30
2018-06-09T13:03:33.522Z,15.67
2018-06-09T13:06:01.829Z,14.97
2018-06-09T13:08:30.142Z,16.00
2018-06-09T13:10:58.452Z,16.23
2018-06-09T13:13:26.754Z,15.93
2018-06-09T13:15:55.045Z,15.30
2018-06-09T13:18:23.350Z,16.37
2018-06-09T13:20:51.675Z,16.20
2018-06-09T13:23:19.981Z,17.00
2018-06-09T13:25:48.369Z,21.00
2018-06-09T13:28:16.673Z,17.50
2018-06-09T13:30:44.968Z,17.10
2018-06-09T13:33:13.284Z,14.20
2018-06-09T13:35:41.612Z,12.50
2018-06-09T13:38:09.918Z,12.03
2018-06-09T13:40:38.260Z,10.57
2018-06-09T13:43:06.563Z,8.77
2018-06-09T13:45:34.868Z,8.60
2018-06-09T13:48:03.191Z,8.77
2018-06-09T13:50:31.488Z,7.37
2018-06-09T13:52:59.812Z,8.40
2018-06-09T13:55:28.099Z,9.50
2018-06-09T13:57:56.416Z,7.80
2018-06-09T14:00:24.710Z,6.23
2018-06-09T14:02:52.996Z,5.23
2018-06-09T14:05:21.276Z,6.80
2018-06-09T14:07:49.594Z,6.72
2018-06-09T14:10:17.873Z,8.20
2018-06-09T14:12:46.219Z,8.17
2018-06-09T14:15:14.496Z,6.23
2018-06-09T14:17:42.930Z,13.53
